createdAt,value
2022-11-30T00:01:26.650Z,35.03
2022-11-30T00:03:55.782Z,35.70
2022-11-30T00:06:25.593Z,30.42
2022-11-30T00:08:54.632Z,27.55
2022-11-30T00:11:24.238Z,38.80
2022-11-30T00:13:52.598Z,28.85
2022-11-30T00:16:20.922Z,26.70
2022-11-30T00:18:51.164Z,30.08
2022-11-30T00:21:19.709Z,36.22
2022-11-30T00:23:48.909Z,28.95
2022-11-30T00:26:19.645Z,33.42
2022-11-30T00:28:48.037Z,27.30
2022-11-30T00:31:18.207Z,25.48
2022-11-30T00:33:46.795Z,25.13
2022-11-30T00:36:18.732Z,26.73
2022-11-30T00:38:47.665Z,33.30
2022-11-30T00:41:16.155Z,31.55
2022-11-30T00:43:44.855Z,29.73
2022-11-30T00:46:13.263Z,29.48
2022-11-30T00:48:42.421Z,28.00
2022-11-30T00:51:12.042Z,30.00
2022-11-30T00:53:42.446Z,35.90
2022-11-30T00:56:11.100Z,29.65
2022-11-30T00:58:39.430Z,31.15
2022-11-30T01:01:08.090Z,41.92
2022-11-30T01:03:37.650Z,32.72
2022-11-30T01:06:06.690Z,30.40
2022-11-30T01:08:35.565Z,36.63
2022-11-30T01:11:13.671Z,37.50
2022-11-30T01:13:42.099Z,33.75
2022-11-30T01:16:11.884Z,36.10
2022-11-30T01:18:40.612Z,31.98
2022-11-30T01:21:11.669Z,31.02
2022-11-30T01:23:39.855Z,34.42
2022-11-30T01:26:10.502Z,32.35
2022-11-30T01:28:40.880Z,34.80
2022-11-30T01:31:11.187Z,36.03
2022-11-30T01:33:39.805Z,30.52
2022-11-30T01:36:11.576Z,36.47
2022-11-30T01:38:43.902Z,33.08
2022-11-30T01:41:16.946Z,34.25
2022-11-30T01:43:47.040Z,35.28
2022-11-30T01:46:25.981Z,42.83
2022-11-30T01:49:00.990Z,36.40
2022-11-30T01:51:35.866Z,28.60
2022-11-30T01:54:07.185Z,32.20
2022-11-30T01:56:38.603Z,33.95
2022-11-30T01:59:06.805Z,31.25
2022-11-30T02:01:35.297Z,29.83
2022-11-30T02:04:08.797Z,30.70
2022-11-30T02:06:37.126Z,30.75
2022-11-30T02:09:05.476Z,30.30
2022-11-30T02:11:33.802Z,30.90
2022-11-30T02:14:16.865Z,40.97
2022-11-30T02:16:55.285Z,33.88
2022-11-30T02:19:58.807Z,27.92
2022-11-30T02:22:44.462Z,28.92
2022-11-30T02:25:22.874Z,44.05
2022-11-30T02:28:05.156Z,30.17
2022-11-30T02:30:38.969Z,32.75
2022-11-30T02:33:13.738Z,33.55
2022-11-30T02:35:47.121Z,40.63
2022-11-30T02:38:22.537Z,36.53
2022-11-30T02:40:50.763Z,28.88
2022-11-30T02:43:20.633Z,38.28
2022-11-30T02:46:00.878Z,33.38
2022-11-30T02:48:34.031Z,34.63
2022-11-30T02:51:05.141Z,33.95
2022-11-30T02:53:33.635Z,36.90
2022-11-30T02:56:01.990Z,35.85
2022-11-30T02:58:30.165Z,34.80
2022-11-30T03:00:59.931Z,30.92
2022-11-30T03:03:28.309Z,42.83
2022-11-30T03:05:56.489Z,44.90
2022-11-30T03:08:24.698Z,38.58
2022-11-30T03:10:53.038Z,42.92
2022-11-30T03:13:21.430Z,40.45
2022-11-30T03:15:49.715Z,37.78
2022-11-30T03:18:19.517Z,36.45
2022-11-30T03:20:47.727Z,34.22
2022-11-30T03:23:15.970Z,36.53
2022-11-30T03:25:44.183Z,32.15
2022-11-30T03:28:12.303Z,34.72
2022-11-30T03:30:40.570Z,38.92
2022-11-30T03:33:08.698Z,36.10
2022-11-30T03:35:38.372Z,47.38
2022-11-30T03:38:06.550Z,29.67
2022-11-30T03:40:34.860Z,37.55
2022-11-30T03:43:03.175Z,38.33
2022-11-30T03:45:31.888Z,32.67
2022-11-30T03:48:00.097Z,41.22
2022-11-30T03:50:28.213Z,43.47
2022-11-30T03:52:58.070Z,32.47
2022-11-30T03:55:26.294Z,34.60
2022-11-30T03:57:54.501Z,33.90
2022-11-30T04:00:22.996Z,39.33
2022-11-30T04:02:51.292Z,45.28
2022-11-30T04:05:22.384Z,41.03
2022-11-30T04:07:50.679Z,40.33
2022-11-30T04:10:20.478Z,33.70
2022-11-30T04:12:48.777Z,39.38
2022-11-30T04:15:17.074Z,35.13
2022-11-30T04:17:45.226Z,36.10
2022-11-30T04:20:14.037Z,34.15
2022-11-30T04:22:42.333Z,36.05
2022-11-30T04:25:11.014Z,34.33
2022-11-30T04:27:40.815Z,34.75
2022-11-30T04:30:10.323Z,34.00
2022-11-30T04:32:38.557Z,43.20
2022-11-30T04:35:07.690Z,39.53
2022-11-30T04:37:36.020Z,30.00
2022-11-30T04:40:04.892Z,37.28
2022-11-30T04:42:33.149Z,31.13
2022-11-30T04:45:02.730Z,36.47
2022-11-30T04:47:31.025Z,30.45
2022-11-30T04:49:59.323Z,35.67
2022-11-30T04:52:27.581Z,34.38
2022-11-30T04:54:57.114Z,35.15
2022-11-30T04:57:25.594Z,35.33
2022-11-30T04:59:54.182Z,28.60
2022-11-30T05:02:23.974Z,33.45
2022-11-30T05:04:52.364Z,38.08
2022-11-30T05:07:20.696Z,36.33
2022-11-30T05:09:48.927Z,38.80
2022-11-30T05:12:17.239Z,33.35
2022-11-30T05:14:45.991Z,36.85
2022-11-30T05:17:15.055Z,33.42
2022-11-30T05:19:44.814Z,38.53
2022-11-30T05:22:13.025Z,33.58
2022-11-30T05:24:43.998Z,32.00
2022-11-30T05:27:16.496Z,33.75
2022-11-30T05:29:47.545Z,35.55
2022-11-30T05:32:15.798Z,31.58
2022-11-30T05:34:51.156Z,32.97
2022-11-30T05:37:19.931Z,44.70
2022-11-30T05:39:48.110Z,38.03
2022-11-30T05:42:16.267Z,32.95
2022-11-30T05:44:45.732Z,33.25
2022-11-30T05:47:14.488Z,46.63
2022-11-30T05:49:44.238Z,34.88
2022-11-30T05:52:12.447Z,34.25
2022-11-30T05:54:40.532Z,31.88
2022-11-30T05:57:08.730Z,32.03
2022-11-30T05:59:36.877Z,37.03
2022-11-30T06:02:05.275Z,37.08
2022-11-30T06:04:34.616Z,36.40
2022-11-30T06:07:04.580Z,32.70
2022-11-30T06:09:32.799Z,36.10
2022-11-30T06:12:00.991Z,36.92
2022-11-30T06:14:29.245Z,36.20
2022-11-30T06:16:57.506Z,39.42
2022-11-30T06:19:25.689Z,34.22
2022-11-30T06:21:53.874Z,32.67
2022-11-30T06:24:23.703Z,38.63
2022-11-30T06:26:52.348Z,39.67
2022-11-30T06:29:20.658Z,44.47
2022-11-30T06:31:48.856Z,44.67
2022-11-30T06:34:17.184Z,38.40
2022-11-30T06:36:45.445Z,33.78
2022-11-30T06:39:14.059Z,35.92
2022-11-30T06:41:43.684Z,32.63
2022-11-30T06:44:12.540Z,39.20
2022-11-30T06:46:40.867Z,34.92
2022-11-30T06:49:09.099Z,32.65
2022-11-30T06:51:39.720Z,38.42
2022-11-30T06:54:09.252Z,58.13
2022-11-30T06:56:37.626Z,34.72
2022-11-30T06:59:07.183Z,40.33
2022-11-30T07:01:35.365Z,38.17
2022-11-30T07:04:03.484Z,41.78
2022-11-30T07:06:31.676Z,33.92
2022-11-30T07:08:59.878Z,37.88
2022-11-30T07:11:28.132Z,34.60
2022-11-30T07:13:56.303Z,34.90
2022-11-30T07:16:26.174Z,40.17
2022-11-30T07:18:54.413Z,34.67
2022-11-30T07:21:22.726Z,33.15
2022-11-30T07:24:08.024Z,33.47
2022-11-30T07:26:36.278Z,39.15
2022-11-30T07:29:05.403Z,35.38
2022-11-30T07:31:35.747Z,39.80
2022-11-30T07:34:07.099Z,43.97
2022-11-30T07:36:36.318Z,39.42
2022-11-30T07:39:05.596Z,40.65
2022-11-30T07:41:33.808Z,38.33
2022-11-30T07:44:02.148Z,41.35
2022-11-30T07:46:31.644Z,40.33
2022-11-30T07:49:01.395Z,36.60
2022-11-30T07:51:29.673Z,33.97
2022-11-30T07:53:58.854Z,39.95
2022-11-30T07:56:27.902Z,33.95
2022-11-30T07:58:58.395Z,36.08
2022-11-30T08:01:29.547Z,35.97
2022-11-30T08:03:58.861Z,35.08
2022-11-30T08:06:30.670Z,40.83
2022-11-30T08:09:00.812Z,44.53
2022-11-30T08:11:31.523Z,36.88
2022-11-30T08:13:59.990Z,32.97
2022-11-30T08:16:30.524Z,35.40
2022-11-30T08:18:59.827Z,34.58
2022-11-30T08:21:32.698Z,34.22
2022-11-30T08:24:01.414Z,37.45
2022-11-30T08:26:31.860Z,33.70
2022-11-30T08:29:02.061Z,34.75
2022-11-30T08:31:35.151Z,32.00
2022-11-30T08:34:05.446Z,35.42
2022-11-30T08:36:35.928Z,27.23
2022-11-30T08:39:05.824Z,31.40
2022-11-30T08:41:34.923Z,30.13
2022-11-30T08:44:03.587Z,26.30
2022-11-30T08:49:22.975Z,30.38
2022-11-30T08:54:46.638Z,26.85
2022-11-30T08:57:15.656Z,32.15
2022-11-30T08:59:43.883Z,29.17
2022-11-30T09:02:13.442Z,54.97
2022-11-30T09:04:41.651Z,28.73
2022-11-30T09:07:11.433Z,26.85
2022-11-30T09:09:39.661Z,26.75
2022-11-30T09:12:08.704Z,27.75
2022-11-30T09:14:38.059Z,25.80
2022-11-30T09:17:06.307Z,28.90
2022-11-30T09:19:34.403Z,30.58
2022-11-30T09:22:02.594Z,30.70
2022-11-30T09:24:32.377Z,27.55
2022-11-30T09:27:00.429Z,29.20
2022-11-30T09:29:28.550Z,26.00
2022-11-30T09:31:56.731Z,30.65
2022-11-30T09:34:24.957Z,25.77
2022-11-30T09:36:53.190Z,23.73
2022-11-30T09:39:21.511Z,27.20
2022-11-30T09:42:40.932Z,27.70
2022-11-30T09:45:14.932Z,27.33
2022-11-30T09:48:13.359Z,31.83
2022-11-30T09:50:44.725Z,30.08
2022-11-30T09:53:23.274Z,39.17
2022-11-30T09:55:57.294Z,25.35
2022-11-30T09:58:37.949Z,28.10
2022-11-30T10:01:07.845Z,29.95
2022-11-30T10:03:36.286Z,26.88
2022-11-30T10:06:12.008Z,28.35
2022-11-30T10:08:52.422Z,24.98
2022-11-30T10:11:39.590Z,29.23
2022-11-30T10:14:35.078Z,31.00
2022-11-30T10:17:10.731Z,37.15
2022-11-30T10:19:59.111Z,34.45
2022-11-30T10:22:35.992Z,32.20
2022-11-30T10:25:15.514Z,26.13
2022-11-30T10:27:51.812Z,25.80
2022-11-30T10:30:23.582Z,28.13
2022-11-30T10:32:54.587Z,24.42
2022-11-30T10:35:33.078Z,23.08
2022-11-30T10:38:06.620Z,27.52
2022-11-30T10:40:39.740Z,33.58
2022-11-30T10:43:19.191Z,23.83
2022-11-30T10:45:51.870Z,27.33
2022-11-30T10:48:27.302Z,20.73
2022-11-30T10:50:55.727Z,27.02
2022-11-30T10:53:24.449Z,30.05
2022-11-30T10:56:01.077Z,28.67
2022-11-30T10:58:34.077Z,22.52
2022-11-30T11:01:09.793Z,23.40
2022-11-30T11:03:38.273Z,24.42
2022-11-30T11:06:13.690Z,23.00
2022-11-30T11:08:45.487Z,24.13
2022-11-30T11:11:32.862Z,20.35
2022-11-30T11:14:17.433Z,24.98
2022-11-30T11:16:56.156Z,23.15
2022-11-30T11:19:27.124Z,20.25
2022-11-30T11:21:55.734Z,27.13
2022-11-30T11:24:27.890Z,25.60
2022-11-30T11:26:57.869Z,19.15
2022-11-30T11:29:42.659Z,23.48
2022-11-30T11:32:23.656Z,19.42
2022-11-30T11:34:52.395Z,24.60
2022-11-30T11:37:26.382Z,27.00
2022-11-30T11:40:00.134Z,20.33
2022-11-30T11:42:31.495Z,22.52
2022-11-30T11:45:01.808Z,19.88
2022-11-30T11:47:39.413Z,17.25
2022-11-30T11:50:49.885Z,15.80
2022-11-30T11:53:25.366Z,16.52
2022-11-30T11:55:58.746Z,16.48
2022-11-30T11:58:39.344Z,14.18
2022-11-30T12:01:38.749Z,16.95
2022-11-30T12:04:17.176Z,17.80
2022-11-30T12:06:48.525Z,26.48
2022-11-30T12:09:19.530Z,16.55
2022-11-30T12:11:49.583Z,19.05
2022-11-30T12:14:19.518Z,24.80
2022-11-30T12:17:02.845Z,20.17
2022-11-30T12:19:38.524Z,18.27
2022-11-30T12:22:22.622Z,17.63
2022-11-30T12:25:05.897Z,23.20
2022-11-30T12:27:42.612Z,22.58
2022-11-30T12:30:18.590Z,17.10
2022-11-30T12:33:09.737Z,19.77
2022-11-30T12:35:47.944Z,16.38
2022-11-30T12:38:28.130Z,17.33
2022-11-30T12:41:06.982Z,14.52
2022-11-30T12:43:45.265Z,14.77
2022-11-30T12:46:20.712Z,16.83
2022-11-30T12:48:58.006Z,14.10
2022-11-30T12:51:37.295Z,15.32
2022-11-30T12:54:14.821Z,16.85
2022-11-30T12:56:50.078Z,15.15
2022-11-30T12:59:29.466Z,15.65
2022-11-30T13:02:21.585Z,15.40
2022-11-30T13:04:58.267Z,14.85
2022-11-30T13:07:33.931Z,14.55
2022-11-30T13:10:07.769Z,12.75
2022-11-30T13:12:38.387Z,13.30
2022-11-30T13:15:15.897Z,9.88
2022-11-30T13:17:45.057Z,11.68
2022-11-30T13:20:21.478Z,15.65
2022-11-30T13:22:59.611Z,24.35
2022-11-30T13:26:06.705Z,14.18
2022-11-30T13:28:30.982Z,11.35
2022-11-30T13:31:06.745Z,11.57
2022-11-30T13:33:49.413Z,11.38
2022-11-30T13:36:31.097Z,9.70
2022-11-30T13:39:31.507Z,11.55
2022-11-30T13:42:30.077Z,9.30
2022-11-30T13:44:59.320Z,10.75
2022-11-30T13:47:34.411Z,11.98
2022-11-30T13:50:07.745Z,10.98
2022-11-30T13:53:08.352Z,10.93
2022-11-30T13:55:59.223Z,15.55
2022-11-30T13:58:28.308Z,9.68
2022-11-30T14:04:45.190Z,7.35
2022-11-30T14:07:38.609Z,7.82
2022-11-30T14:10:28.401Z,7.20
2022-11-30T14:13:02.805Z,8.68
2022-11-30T14:15:52.904Z,13.38
2022-11-30T14:18:41.010Z,14.02
2022-11-30T14:21:18.768Z,9.70
2022-11-30T14:23:53.503Z,15.07
2022-11-30T14:26:26.853Z,10.27
2022-11-30T14:29:03.361Z,9.35
2022-11-30T14:31:36.516Z,17.80
2022-11-30T14:34:10.484Z,12.40
2022-11-30T14:36:44.313Z,11.57
2022-11-30T14:39:27.008Z,10.15
2022-11-30T14:41:55.873Z,13.32
2022-11-30T14:44:25.641Z,10.43
2022-11-30T14:46:54.034Z,10.63
2022-11-30T14:49:24.524Z,10.02
2022-11-30T14:51:54.973Z,11.75
2022-11-30T14:54:37.957Z,10.07
2022-11-30T14:57:14.150Z,16.00
2022-11-30T14:59:49.190Z,11.07
2022-11-30T15:02:29.956Z,9.75
2022-11-30T15:04:59.815Z,10.88
2022-11-30T15:07:29.892Z,10.88
2022-11-30T15:10:04.852Z,11.57
2022-11-30T15:12:37.493Z,10.80
2022-11-30T15:15:19.791Z,15.13
2022-11-30T15:17:54.578Z,25.88
2022-11-30T15:20:29.849Z,13.45
2022-11-30T15:23:01.543Z,9.75
2022-11-30T15:25:36.965Z,14.27
2022-11-30T15:28:06.187Z,10.65
2022-11-30T15:30:39.570Z,9.88
2022-11-30T15:33:07.934Z,9.45
2022-11-30T15:35:57.409Z,9.98
2022-11-30T15:38:27.933Z,9.25
2022-11-30T15:41:03.528Z,9.70
2022-11-30T15:43:37.997Z,11.60
2022-11-30T15:46:08.650Z,12.93
2022-11-30T15:48:39.811Z,14.35
2022-11-30T15:51:08.478Z,13.40
2022-11-30T15:53:49.276Z,14.00
2022-11-30T15:56:25.966Z,10.55
2022-11-30T15:59:07.400Z,14.30
2022-11-30T16:02:04.994Z,11.50
2022-11-30T16:05:13.618Z,12.48
2022-11-30T16:07:51.323Z,9.73
2022-11-30T16:10:22.591Z,10.90
2022-11-30T16:12:52.037Z,13.60
2022-11-30T16:15:23.415Z,9.88
2022-11-30T16:17:55.489Z,11.98
2022-11-30T16:20:24.796Z,10.82
2022-11-30T16:22:53.355Z,9.05
2022-11-30T16:25:25.021Z,9.65
2022-11-30T16:27:53.881Z,9.45
2022-11-30T16:30:24.059Z,8.77
2022-11-30T16:32:53.719Z,14.93
2022-11-30T16:35:24.971Z,11.10
2022-11-30T16:37:53.638Z,14.35
2022-11-30T16:40:21.955Z,12.85
2022-11-30T16:42:51.049Z,11.88
2022-11-30T16:45:21.605Z,22.50
2022-11-30T16:47:50.065Z,11.32
2022-11-30T16:50:20.565Z,10.70
2022-11-30T16:52:48.782Z,10.25
2022-11-30T16:55:18.996Z,12.65
2022-11-30T16:57:47.429Z,28.83
2022-11-30T17:00:18.305Z,13.35
2022-11-30T17:02:50.339Z,14.32
2022-11-30T17:05:20.232Z,13.98
2022-11-30T17:07:48.455Z,16.10
2022-11-30T17:10:16.837Z,12.77
2022-11-30T17:12:45.089Z,17.20
2022-11-30T17:15:16.787Z,15.07
2022-11-30T17:17:45.065Z,14.23
2022-11-30T17:20:15.115Z,13.90
2022-11-30T17:22:45.746Z,12.38
2022-11-30T17:25:17.039Z,12.77
2022-11-30T17:27:45.859Z,14.63
2022-11-30T17:30:16.788Z,14.20
2022-11-30T17:32:45.205Z,12.05
2022-11-30T17:35:13.823Z,13.52
2022-11-30T17:37:42.078Z,18.77
2022-11-30T17:40:15.476Z,17.35
2022-11-30T17:42:44.018Z,13.95
2022-11-30T17:45:12.685Z,14.35
2022-11-30T17:47:40.992Z,15.50
2022-11-30T17:50:10.406Z,14.45
2022-11-30T17:52:40.626Z,14.48
2022-11-30T17:55:09.810Z,18.20
2022-11-30T17:57:40.138Z,14.23
2022-11-30T18:00:09.755Z,17.70
2022-11-30T18:02:38.029Z,11.60
2022-11-30T18:05:07.422Z,12.75
2022-11-30T18:07:35.942Z,13.07
2022-11-30T18:10:06.146Z,14.55
2022-11-30T18:12:34.445Z,11.73
2022-11-30T18:15:04.256Z,14.15
2022-11-30T18:17:32.812Z,11.75
2022-11-30T18:20:01.198Z,23.30
2022-11-30T18:22:29.684Z,13.00
2022-11-30T18:24:57.950Z,14.38
2022-11-30T18:27:26.760Z,12.82
2022-11-30T18:29:55.652Z,15.02
2022-11-30T18:32:25.493Z,13.77
2022-11-30T18:34:53.867Z,19.20
2022-11-30T18:37:21.980Z,13.80
2022-11-30T18:39:50.320Z,19.00
2022-11-30T18:42:18.683Z,16.70
2022-11-30T18:44:47.274Z,17.20
2022-11-30T18:47:15.762Z,19.20
2022-11-30T18:49:45.695Z,20.10
2022-11-30T18:52:14.162Z,19.90
2022-11-30T18:54:42.328Z,19.73
2022-11-30T18:57:10.628Z,18.65
2022-11-30T18:59:38.949Z,18.73
2022-11-30T19:02:07.363Z,21.83
2022-11-30T19:04:35.901Z,30.10
2022-11-30T19:07:05.764Z,29.08
2022-11-30T19:09:34.142Z,29.13
2022-11-30T19:12:02.447Z,17.15
2022-11-30T19:14:30.812Z,25.20
2022-11-30T19:17:00.811Z,15.32
2022-11-30T19:19:29.271Z,20.85
2022-11-30T19:21:59.479Z,16.83
2022-11-30T19:24:29.492Z,18.77
2022-11-30T19:26:58.149Z,19.67
2022-11-30T19:29:26.380Z,22.85
2022-11-30T19:31:54.577Z,19.75
2022-11-30T19:34:22.869Z,16.63
2022-11-30T19:36:51.074Z,20.42
2022-11-30T19:39:19.410Z,17.17
2022-11-30T19:41:49.044Z,26.38
2022-11-30T19:44:17.392Z,23.10
2022-11-30T19:46:45.790Z,19.45
2022-11-30T19:49:14.140Z,25.98
2022-11-30T19:51:42.295Z,20.63
2022-11-30T19:54:11.637Z,24.90
2022-11-30T19:56:41.977Z,19.85
2022-11-30T19:59:12.192Z,17.63
2022-11-30T20:01:40.416Z,16.48
2022-11-30T20:04:08.947Z,19.20
2022-11-30T20:06:39.860Z,16.83
2022-11-30T20:09:09.919Z,18.80
2022-11-30T20:11:38.088Z,25.13
2022-11-30T20:14:06.325Z,23.00
2022-11-30T20:16:35.933Z,23.73
2022-11-30T20:19:04.175Z,22.38
2022-11-30T20:21:35.685Z,19.50
2022-11-30T20:24:06.710Z,20.08
2022-11-30T20:26:39.956Z,23.95
2022-11-30T20:29:09.517Z,21.27
2022-11-30T20:31:39.261Z,23.92
2022-11-30T20:34:08.316Z,25.70
2022-11-30T20:36:36.949Z,18.13
2022-11-30T20:39:05.955Z,21.35
2022-11-30T20:41:34.954Z,21.50
2022-11-30T20:44:03.520Z,20.10
2022-11-30T20:46:33.409Z,20.35
2022-11-30T20:49:04.120Z,31.25
2022-11-30T20:51:34.846Z,20.98
2022-11-30T20:54:07.107Z,24.80
2022-11-30T20:56:37.209Z,21.55
2022-11-30T20:59:07.551Z,18.27
2022-11-30T21:01:36.166Z,19.30
2022-11-30T21:04:06.468Z,19.00
2022-11-30T21:06:34.979Z,18.90
2022-11-30T21:09:04.003Z,22.25
2022-11-30T21:11:32.805Z,24.95
2022-11-30T21:14:01.137Z,28.52
2022-11-30T21:16:30.156Z,21.55
2022-11-30T21:19:00.615Z,24.88
2022-11-30T21:21:32.205Z,34.47
2022-11-30T21:24:01.816Z,19.95
2022-11-30T21:26:32.387Z,20.98
2022-11-30T21:29:02.456Z,25.45
2022-11-30T21:31:31.489Z,26.50
2022-11-30T21:34:00.216Z,20.60
2022-11-30T21:36:30.212Z,19.05
2022-11-30T21:39:05.477Z,23.27
2022-11-30T21:41:35.692Z,20.63
2022-11-30T21:44:04.205Z,29.38
2022-11-30T21:46:32.655Z,24.17
2022-11-30T21:49:00.992Z,22.38
2022-11-30T21:51:31.905Z,20.65
2022-11-30T21:54:01.688Z,24.73
2022-11-30T21:56:31.451Z,27.63
2022-11-30T21:59:00.219Z,22.38
2022-11-30T22:01:30.968Z,24.92
2022-11-30T22:04:00.521Z,29.55
2022-11-30T22:06:31.746Z,22.95
2022-11-30T22:09:03.360Z,30.13
2022-11-30T22:11:32.416Z,26.77
2022-11-30T22:14:00.656Z,25.75
2022-11-30T22:16:35.497Z,29.27
2022-11-30T22:19:05.269Z,22.67
2022-11-30T22:21:35.884Z,27.08
2022-11-30T22:24:06.023Z,24.10
2022-11-30T22:26:36.051Z,25.83
2022-11-30T22:29:06.854Z,24.67
2022-11-30T22:31:37.563Z,26.50
2022-11-30T22:34:06.368Z,25.92
2022-11-30T22:36:37.960Z,25.60
2022-11-30T22:39:09.424Z,28.92
2022-11-30T22:41:37.932Z,25.77
2022-11-30T22:44:06.483Z,26.77
2022-11-30T22:46:36.366Z,23.75
2022-11-30T22:49:06.818Z,26.98
2022-11-30T22:51:37.850Z,25.23
2022-11-30T22:54:06.959Z,25.55
2022-11-30T22:56:36.816Z,19.17
2022-11-30T22:59:06.677Z,27.48
2022-11-30T23:01:36.996Z,22.63
2022-11-30T23:04:07.942Z,24.40
2022-11-30T23:06:38.544Z,21.92
2022-11-30T23:09:08.800Z,26.67
2022-11-30T23:11:37.381Z,30.17
2022-11-30T23:14:08.323Z,23.50
2022-11-30T23:16:37.700Z,24.48
2022-11-30T23:19:07.329Z,26.00
2022-11-30T23:21:41.348Z,25.85
2022-11-30T23:24:13.705Z,24.98
2022-11-30T23:26:42.714Z,24.75
2022-11-30T23:29:13.821Z,25.88
2022-11-30T23:31:43.812Z,24.80
2022-11-30T23:34:14.349Z,23.35
2022-11-30T23:36:44.135Z,23.70
2022-11-30T23:39:14.929Z,26.98
2022-11-30T23:41:43.755Z,27.58
2022-11-30T23:44:12.733Z,26.17
2022-11-30T23:46:41.426Z,30.10
2022-11-30T23:49:09.890Z,22.60
2022-11-30T23:51:38.311Z,21.05
2022-11-30T23:54:08.141Z,21.83
2022-11-30T23:56:36.332Z,30.52
2022-11-30T23:59:04.689Z,30.38
